createdAt,value
2023-04-21T00:00:21.100Z,1.00
2023-04-21T00:00:47.358Z,1.00
2023-04-21T00:01:12.862Z,1.00
2023-04-21T00:01:35.602Z,1.00
2023-04-21T00:01:59.367Z,1.00
2023-04-21T00:02:24.683Z,1.00
2023-04-21T00:02:49.544Z,99.90
2023-04-21T00:03:12.722Z,99.90
2023-04-21T00:03:38.624Z,1.00
2023-04-21T00:04:02.640Z,1.00
2023-04-21T00:04:27.923Z,1.00
2023-04-21T00:04:52.114Z,1.00
2023-04-21T00:05:15.804Z,1.00
2023-04-21T00:05:42.682Z,1.00
2023-04-21T00:06:12.381Z,1.00
2023-04-21T00:06:35.060Z,99.90
2023-04-21T00:06:57.725Z,99.90
2023-04-21T00:07:22.980Z,1.00
2023-04-21T00:07:48.647Z,99.90
2023-04-21T00:08:12.881Z,99.90
2023-04-21T00:08:40.450Z,99.90
2023-04-21T00:09:05.508Z,99.90
2023-04-21T00:09:28.284Z,99.90
2023-04-21T00:09:51.087Z,99.90
2023-04-21T00:10:13.885Z,1.00
2023-04-21T00:10:36.691Z,99.90
2023-04-21T00:10:59.423Z,99.90
2023-04-21T00:11:22.711Z,99.90
2023-04-21T00:11:45.585Z,99.90
2023-04-21T00:12:08.602Z,99.90
2023-04-21T00:12:31.660Z,99.90
2023-04-21T00:12:54.544Z,99.90
2023-04-21T00:13:17.316Z,99.90
2023-04-21T00:13:40.052Z,99.90
2023-04-21T00:14:02.736Z,99.90
2023-04-21T00:14:25.512Z,99.90
2023-04-21T00:14:50.899Z,99.90
2023-04-21T00:15:13.715Z,99.90
2023-04-21T00:15:36.635Z,99.90
2023-04-21T00:15:59.345Z,99.90
2023-04-21T00:16:22.262Z,99.90
2023-04-21T00:16:45.121Z,99.90
2023-04-21T00:17:07.857Z,99.90
2023-04-21T00:17:31.099Z,99.90
2023-04-21T00:17:53.943Z,99.90
2023-04-21T00:18:18.158Z,99.90
2023-04-21T00:18:40.883Z,99.90
2023-04-21T00:19:07.080Z,99.90
2023-04-21T00:19:30.337Z,99.90
2023-04-21T00:19:53.181Z,99.90
2023-04-21T00:20:16.483Z,99.90
2023-04-21T00:20:39.386Z,99.90
2023-04-21T00:21:02.095Z,99.90
2023-04-21T00:21:25.294Z,99.90
2023-04-21T00:21:48.168Z,99.90
2023-04-21T00:22:15.013Z,99.90
2023-04-21T00:22:37.843Z,99.90
2023-04-21T00:23:00.781Z,99.90
2023-04-21T00:23:24.989Z,99.90
2023-04-21T00:23:47.858Z,99.90
2023-04-21T00:24:10.717Z,99.90
2023-04-21T00:24:33.500Z,99.90
2023-04-21T00:24:58.438Z,99.90
2023-04-21T00:25:21.281Z,99.90
2023-04-21T00:25:44.116Z,99.90
2023-04-21T00:26:06.908Z,99.90
2023-04-21T00:26:29.637Z,99.90
2023-04-21T00:26:52.577Z,99.90
2023-04-21T00:27:17.827Z,99.90
2023-04-21T00:27:40.661Z,99.90
2023-04-21T00:28:03.709Z,99.90
2023-04-21T00:28:26.425Z,99.90
2023-04-21T00:28:49.180Z,99.90
2023-04-21T00:29:12.095Z,99.90
2023-04-21T00:29:34.881Z,99.90
2023-04-21T00:29:57.665Z,99.90
2023-04-21T00:30:20.495Z,99.90
2023-04-21T00:30:43.279Z,99.90
2023-04-21T00:31:06.134Z,99.90
2023-04-21T00:31:28.972Z,99.90
2023-04-21T00:31:51.844Z,99.90
2023-04-21T00:32:14.563Z,99.90
2023-04-21T00:32:37.737Z,99.90
2023-04-21T00:33:01.063Z,1.00
2023-04-21T00:33:27.088Z,1.00
2023-04-21T00:33:49.937Z,1.00
2023-04-21T00:34:15.665Z,1.00
2023-04-21T00:34:38.519Z,1.00
2023-04-21T00:35:03.684Z,1.00
2023-04-21T00:35:28.767Z,1.00
2023-04-21T00:35:51.619Z,1.00
2023-04-21T00:36:14.333Z,1.00
2023-04-21T00:36:39.379Z,1.00
2023-04-21T00:37:02.268Z,1.00
2023-04-21T00:37:28.203Z,1.00
2023-04-21T00:37:51.123Z,1.00
2023-04-21T00:38:16.561Z,1.00
2023-04-21T00:38:40.734Z,1.00
2023-04-21T00:39:04.168Z,99.90
2023-04-21T00:39:26.897Z,99.90
2023-04-21T00:39:49.612Z,99.90
2023-04-21T00:40:13.642Z,99.90
2023-04-21T00:40:36.323Z,99.90
2023-04-21T00:40:59.137Z,99.90
2023-04-21T00:41:21.957Z,99.90
2023-04-21T00:41:44.673Z,99.90
2023-04-21T00:42:07.406Z,99.90
2023-04-21T00:42:30.096Z,99.90
2023-04-21T00:42:52.835Z,99.90
2023-04-21T00:43:15.612Z,99.90
2023-04-21T00:43:38.654Z,99.90
2023-04-21T00:44:02.581Z,99.90
2023-04-21T00:44:25.353Z,99.90
2023-04-21T00:44:50.527Z,99.90
2023-04-21T00:45:15.261Z,99.90
2023-04-21T00:45:38.104Z,99.90
2023-04-21T00:46:00.809Z,99.90
2023-04-21T00:46:23.577Z,99.90
2023-04-21T00:46:46.352Z,99.90
2023-04-21T00:47:09.374Z,99.90
2023-04-21T00:47:33.661Z,99.90
2023-04-21T00:47:59.555Z,99.90
2023-04-21T00:48:22.356Z,99.90
2023-04-21T00:48:45.156Z,99.90
2023-04-21T00:49:08.349Z,99.90
2023-04-21T00:49:31.190Z,99.90
2023-04-21T00:49:54.006Z,99.90
2023-04-21T00:50:16.916Z,99.90
2023-04-21T00:50:42.091Z,99.90
2023-04-21T00:51:04.866Z,99.90
2023-04-21T00:51:28.319Z,99.90
2023-04-21T00:51:51.263Z,99.90
2023-04-21T00:52:14.535Z,99.90
2023-04-21T00:52:37.290Z,99.90
2023-04-21T00:53:00.045Z,99.90
2023-04-21T00:53:23.038Z,99.90
2023-04-21T00:53:47.253Z,99.90
2023-04-21T00:54:10.084Z,99.90
2023-04-21T00:54:33.000Z,99.90
2023-04-21T00:54:56.193Z,99.90
2023-04-21T00:55:18.895Z,99.90
2023-04-21T00:55:41.694Z,99.90
2023-04-21T00:56:04.646Z,99.90
2023-04-21T00:56:29.799Z,99.90
2023-04-21T00:56:52.622Z,99.90
2023-04-21T00:57:15.384Z,99.90
2023-04-21T00:57:38.136Z,99.90
2023-04-21T00:58:01.128Z,99.90
2023-04-21T00:58:26.991Z,1.00
2023-04-21T00:58:50.738Z,1.00
2023-04-21T00:59:15.943Z,1.00
2023-04-21T00:59:41.121Z,1.00
2023-04-21T01:00:07.094Z,1.00
2023-04-21T01:00:29.946Z,1.00
2023-04-21T01:00:53.015Z,1.00
2023-04-21T01:01:15.889Z,1.00
2023-04-21T01:01:40.283Z,1.00
2023-04-21T01:02:03.294Z,1.00
2023-04-21T01:02:26.609Z,1.00
2023-04-21T01:02:52.073Z,1.00
2023-04-21T01:03:15.252Z,1.00
2023-04-21T01:03:40.655Z,1.00
2023-04-21T01:04:04.822Z,1.00
2023-04-21T01:04:28.331Z,1.00
2023-04-21T01:04:51.136Z,1.00
2023-04-21T01:05:13.985Z,1.00
2023-04-21T01:05:36.801Z,1.00
2023-04-21T01:06:02.757Z,1.00
2023-04-21T01:06:28.163Z,1.00
2023-04-21T01:06:51.377Z,1.00
2023-04-21T01:07:14.417Z,1.00
2023-04-21T01:07:39.393Z,1.00
2023-04-21T01:08:03.050Z,1.00
2023-04-21T01:08:28.480Z,1.00
2023-04-21T01:08:52.688Z,1.00
2023-04-21T01:09:15.548Z,1.00
2023-04-21T01:09:40.742Z,1.00
2023-04-21T01:10:03.625Z,1.00
2023-04-21T01:10:26.485Z,16.50
2023-04-21T01:10:49.255Z,39.90
2023-04-21T01:11:12.555Z,75.50
2023-04-21T01:11:35.402Z,66.30
2023-04-21T01:12:04.832Z,99.90
2023-04-21T01:12:27.707Z,99.90
2023-04-21T01:12:50.551Z,99.90
2023-04-21T01:13:13.376Z,99.90
2023-04-21T01:13:36.126Z,99.90
2023-04-21T01:13:58.896Z,99.90
2023-04-21T01:14:21.625Z,99.90
2023-04-21T01:14:44.373Z,99.90
2023-04-21T01:15:09.107Z,99.90
2023-04-21T01:15:32.007Z,99.90
2023-04-21T01:15:57.120Z,99.90
2023-04-21T01:16:20.124Z,99.90
2023-04-21T01:16:45.057Z,74.90
2023-04-21T01:17:08.293Z,94.60
2023-04-21T01:17:31.430Z,13.40
2023-04-21T01:17:54.565Z,13.70
2023-04-21T01:18:18.416Z,19.50
2023-04-21T01:18:41.215Z,35.40
2023-04-21T01:19:06.151Z,22.90
2023-04-21T01:19:30.415Z,66.80
2023-04-21T01:19:53.196Z,25.60
2023-04-21T01:20:16.013Z,33.10
2023-04-21T01:20:39.234Z,14.90
2023-04-21T01:21:02.351Z,49.80
2023-04-21T01:21:25.213Z,66.60
2023-04-21T01:21:51.580Z,57.50
2023-04-21T01:22:15.489Z,29.00
2023-04-21T01:22:38.406Z,1.00
2023-04-21T01:23:01.941Z,1.00
2023-04-21T01:23:24.615Z,24.60
2023-04-21T01:23:47.438Z,16.60
2023-04-21T01:24:12.021Z,58.60
2023-04-21T01:24:38.801Z,37.90
2023-04-21T01:25:01.640Z,2.00
2023-04-21T01:25:28.229Z,37.50
2023-04-21T01:25:51.526Z,1.00
2023-04-21T01:26:14.342Z,1.00
2023-04-21T01:26:37.013Z,1.00
2023-04-21T01:26:59.813Z,1.00
2023-04-21T01:27:22.742Z,1.00
2023-04-21T01:27:45.583Z,1.00
2023-04-21T01:28:08.331Z,1.00
2023-04-21T01:28:31.128Z,1.00
2023-04-21T01:28:58.688Z,1.00
2023-04-21T01:29:21.475Z,1.00
2023-04-21T01:29:47.661Z,1.00
2023-04-21T01:30:11.040Z,1.00
2023-04-21T01:30:35.968Z,1.00
2023-04-21T01:30:58.719Z,1.00
2023-04-21T01:31:21.553Z,1.00
2023-04-21T01:31:46.542Z,1.00
2023-04-21T01:32:13.411Z,1.00
2023-04-21T01:32:36.437Z,1.00
2023-04-21T01:33:01.575Z,1.00
2023-04-21T01:33:24.323Z,1.00
2023-04-21T01:33:47.063Z,1.00
2023-04-21T01:34:09.794Z,1.00
2023-04-21T01:34:34.780Z,1.00
2023-04-21T01:34:58.030Z,1.00
2023-04-21T01:35:23.066Z,1.00
2023-04-21T01:35:48.975Z,1.00
2023-04-21T01:36:11.718Z,1.00
2023-04-21T01:36:36.351Z,1.00
2023-04-21T01:37:02.934Z,1.00
2023-04-21T01:37:26.818Z,1.00
2023-04-21T01:37:52.026Z,1.00
2023-04-21T01:38:19.710Z,1.00
2023-04-21T01:38:42.703Z,1.00
2023-04-21T01:39:06.045Z,1.00
2023-04-21T01:39:28.922Z,1.00
2023-04-21T01:39:55.665Z,1.00
2023-04-21T01:40:18.472Z,1.00
2023-04-21T01:40:43.407Z,1.00
2023-04-21T01:41:06.362Z,1.00
2023-04-21T01:41:31.348Z,1.00
2023-04-21T01:41:55.695Z,1.00
2023-04-21T01:42:18.623Z,1.00
2023-04-21T01:42:45.194Z,1.00
2023-04-21T01:43:08.135Z,99.90
2023-04-21T01:43:30.877Z,99.90
2023-04-21T01:43:53.743Z,99.90
2023-04-21T01:44:16.624Z,99.90
2023-04-21T01:44:39.474Z,99.90
2023-04-21T01:45:02.333Z,99.90
2023-04-21T01:45:25.257Z,99.90
2023-04-21T01:45:48.569Z,99.90
2023-04-21T01:46:11.388Z,99.90
2023-04-21T01:46:34.256Z,99.90
2023-04-21T01:46:57.108Z,99.90
2023-04-21T01:47:20.033Z,99.90
2023-04-21T01:47:42.903Z,99.90
2023-04-21T01:48:06.341Z,99.90
2023-04-21T01:48:29.257Z,99.90
2023-04-21T01:48:52.029Z,99.90
2023-04-21T01:49:14.728Z,99.90
2023-04-21T01:49:37.471Z,99.90
2023-04-21T01:50:00.362Z,99.90
2023-04-21T01:50:24.274Z,99.90
2023-04-21T01:50:47.024Z,99.90
2023-04-21T01:51:09.805Z,1.00
2023-04-21T01:51:34.738Z,1.00
2023-04-21T01:51:57.479Z,1.00
2023-04-21T01:52:21.915Z,1.00
2023-04-21T01:52:45.049Z,1.00
2023-04-21T01:53:07.833Z,1.00
2023-04-21T01:53:30.569Z,1.00
2023-04-21T01:53:55.811Z,1.00
2023-04-21T01:54:18.556Z,1.00
2023-04-21T01:54:43.746Z,1.00
2023-04-21T01:55:07.848Z,1.00
2023-04-21T01:55:32.988Z,1.00
2023-04-21T01:55:55.822Z,1.00
2023-04-21T01:56:21.460Z,1.00
2023-04-21T01:56:44.353Z,53.00
2023-04-21T01:57:07.927Z,99.90
2023-04-21T01:57:30.732Z,95.40
2023-04-21T01:57:53.574Z,52.10
2023-04-21T01:58:16.267Z,76.70
2023-04-21T01:58:39.096Z,77.30
2023-04-21T01:59:04.212Z,7.70
2023-04-21T01:59:27.152Z,1.00
2023-04-21T01:59:50.042Z,1.00
2023-04-21T02:00:14.969Z,1.00
2023-04-21T02:00:37.874Z,1.00
2023-04-21T02:01:02.865Z,1.00
2023-04-21T02:01:25.732Z,1.00
2023-04-21T02:01:48.745Z,1.00
2023-04-21T02:02:12.063Z,1.00
2023-04-21T02:02:35.201Z,1.00
2023-04-21T02:02:58.279Z,1.00
2023-04-21T02:03:21.485Z,1.00
2023-04-21T02:03:46.999Z,1.00
2023-04-21T02:04:09.978Z,1.00
2023-04-21T02:04:33.093Z,1.00
2023-04-21T02:04:59.366Z,1.00
2023-04-21T02:05:22.125Z,1.00
2023-04-21T02:05:45.031Z,1.00
2023-04-21T02:06:08.184Z,1.00
2023-04-21T02:06:36.397Z,1.00
2023-04-21T02:06:59.130Z,1.00
2023-04-21T02:07:25.619Z,1.00
2023-04-21T02:07:50.540Z,1.00
2023-04-21T02:08:15.772Z,1.00
2023-04-21T02:08:38.587Z,1.00
2023-04-21T02:09:03.493Z,1.00
2023-04-21T02:09:26.336Z,1.00
2023-04-21T02:09:49.135Z,1.00
2023-04-21T02:10:11.933Z,1.00
2023-04-21T02:10:36.990Z,1.00
2023-04-21T02:11:02.015Z,1.00
2023-04-21T02:11:25.629Z,99.90
2023-04-21T02:11:48.348Z,99.90
2023-04-21T02:12:11.051Z,99.90
2023-04-21T02:12:33.889Z,99.90
2023-04-21T02:12:56.618Z,99.90
2023-04-21T02:13:19.396Z,99.90
2023-04-21T02:13:42.185Z,99.90
2023-04-21T02:14:04.959Z,99.90
2023-04-21T02:14:27.742Z,99.90
2023-04-21T02:14:50.820Z,99.90
2023-04-21T02:15:13.551Z,99.90
2023-04-21T02:15:37.353Z,99.90
2023-04-21T02:16:12.521Z,99.90
2023-04-21T02:16:37.073Z,99.90
2023-04-21T02:17:00.023Z,99.90
2023-04-21T02:17:22.955Z,99.90
2023-04-21T02:17:47.082Z,99.90
2023-04-21T02:18:10.742Z,99.90
2023-04-21T02:18:34.759Z,99.90
2023-04-21T02:18:57.604Z,99.90
2023-04-21T02:19:20.853Z,99.90
2023-04-21T02:19:45.456Z,99.90
2023-04-21T02:20:12.188Z,99.90
2023-04-21T02:20:34.847Z,99.90
2023-04-21T02:20:57.702Z,99.90
2023-04-21T02:21:21.783Z,99.90
2023-04-21T02:21:44.506Z,99.90
2023-04-21T02:22:08.514Z,39.40
2023-04-21T02:22:32.806Z,87.50
2023-04-21T02:22:55.592Z,99.90
2023-04-21T02:23:18.242Z,99.60
2023-04-21T02:23:41.278Z,99.90
2023-04-21T02:24:04.477Z,99.90
2023-04-21T02:24:27.280Z,99.10
2023-04-21T02:24:50.062Z,99.90
2023-04-21T02:25:12.824Z,99.90
2023-04-21T02:25:35.662Z,99.90
2023-04-21T02:25:58.297Z,99.90
2023-04-21T02:26:21.629Z,99.90
2023-04-21T02:26:44.283Z,99.90
2023-04-21T02:27:09.215Z,99.90
2023-04-21T02:27:31.955Z,99.90
2023-04-21T02:27:54.730Z,99.90
2023-04-21T02:28:17.449Z,99.90
2023-04-21T02:28:40.307Z,99.90
2023-04-21T02:29:05.184Z,99.90
2023-04-21T02:29:27.892Z,99.90
2023-04-21T02:29:50.939Z,92.80
2023-04-21T02:30:13.830Z,91.70
2023-04-21T02:30:36.578Z,99.90
2023-04-21T02:30:59.337Z,81.90
2023-04-21T02:31:22.127Z,90.50
2023-04-21T02:31:58.834Z,99.90
2023-04-21T02:32:26.065Z,99.90
2023-04-21T02:32:49.247Z,99.90
2023-04-21T02:33:12.543Z,99.90
2023-04-21T02:33:35.356Z,99.90
2023-04-21T02:33:59.244Z,99.90
2023-04-21T02:34:22.017Z,99.90
2023-04-21T02:34:44.731Z,99.90
2023-04-21T02:35:08.057Z,99.90
2023-04-21T02:35:30.958Z,99.90
2023-04-21T02:35:53.759Z,99.90
2023-04-21T02:36:18.797Z,99.90
2023-04-21T02:36:41.673Z,99.90
2023-04-21T02:37:04.999Z,99.90
2023-04-21T02:37:27.681Z,99.90
2023-04-21T02:37:51.862Z,99.90
2023-04-21T02:38:14.573Z,99.90
2023-04-21T02:38:37.329Z,99.90
2023-04-21T02:39:00.238Z,99.90
2023-04-21T02:39:23.051Z,99.90
2023-04-21T02:39:48.232Z,1.00
2023-04-21T02:40:12.593Z,99.90
2023-04-21T02:40:35.400Z,99.90
2023-04-21T02:40:58.108Z,99.90
2023-04-21T02:41:20.805Z,1.00
2023-04-21T02:41:43.540Z,99.90
2023-04-21T02:42:06.276Z,99.90
2023-04-21T02:42:29.026Z,99.90
2023-04-21T02:42:51.706Z,99.90
2023-04-21T02:43:14.556Z,99.90
2023-04-21T02:43:40.431Z,99.90
2023-04-21T02:44:03.424Z,99.90
2023-04-21T02:44:26.412Z,99.90
2023-04-21T02:44:49.298Z,99.90
2023-04-21T02:45:12.166Z,99.90
2023-04-21T02:45:34.875Z,99.90
2023-04-21T02:45:57.780Z,1.00
2023-04-21T02:46:20.496Z,1.00
2023-04-21T02:46:43.400Z,1.00
2023-04-21T02:47:06.351Z,99.90
2023-04-21T02:47:29.189Z,1.00
2023-04-21T02:47:52.162Z,99.90
2023-04-21T02:48:15.192Z,99.90
2023-04-21T02:48:37.964Z,99.90
2023-04-21T02:49:03.337Z,99.90
2023-04-21T02:49:25.969Z,99.90
2023-04-21T02:49:48.836Z,99.90
2023-04-21T02:50:13.624Z,99.90
2023-04-21T02:50:36.480Z,99.90
2023-04-21T02:50:59.373Z,99.90
2023-04-21T02:51:22.183Z,99.90
2023-04-21T02:51:45.051Z,99.90
2023-04-21T02:52:07.778Z,99.90
2023-04-21T02:52:30.506Z,99.90
2023-04-21T02:52:54.665Z,99.90
2023-04-21T02:53:17.452Z,99.90
2023-04-21T02:53:40.651Z,99.90
2023-04-21T02:54:03.432Z,99.90
2023-04-21T02:54:26.206Z,99.90
2023-04-21T02:54:49.077Z,99.90
2023-04-21T02:55:14.985Z,99.90
2023-04-21T02:55:37.765Z,99.90
2023-04-21T02:56:02.770Z,99.90
2023-04-21T02:56:25.702Z,99.90
2023-04-21T02:56:48.479Z,99.90
2023-04-21T02:57:11.259Z,99.90
2023-04-21T02:57:34.099Z,99.90
2023-04-21T02:57:56.956Z,99.90
2023-04-21T02:58:19.679Z,99.90
2023-04-21T02:58:42.391Z,99.90
2023-04-21T02:59:05.190Z,99.90
2023-04-21T02:59:28.021Z,99.90
2023-04-21T02:59:51.575Z,99.90
2023-04-21T03:00:15.184Z,99.90
2023-04-21T03:00:38.277Z,99.90
2023-04-21T03:01:01.103Z,99.90
2023-04-21T03:01:23.877Z,99.90
2023-04-21T03:01:49.233Z,99.90
2023-04-21T03:02:12.132Z,99.90
2023-04-21T03:02:35.243Z,99.90
2023-04-21T03:03:00.486Z,99.90
2023-04-21T03:03:23.750Z,99.90
2023-04-21T03:03:47.055Z,99.90
2023-04-21T03:04:10.273Z,99.90
2023-04-21T03:04:34.482Z,1.00
2023-04-21T03:04:57.509Z,1.00
2023-04-21T03:05:22.676Z,1.00
2023-04-21T03:05:45.384Z,1.00
2023-04-21T03:06:08.524Z,1.00
2023-04-21T03:06:33.121Z,1.00
2023-04-21T03:06:56.546Z,1.00
2023-04-21T03:07:19.232Z,61.00
2023-04-21T03:07:44.385Z,1.00
2023-04-21T03:08:10.648Z,1.00
2023-04-21T03:08:33.417Z,1.00
2023-04-21T03:08:56.831Z,1.00
2023-04-21T03:09:19.748Z,1.00
2023-04-21T03:09:42.798Z,1.00
2023-04-21T03:10:06.613Z,1.00
2023-04-21T03:10:31.786Z,1.00
2023-04-21T03:10:54.914Z,1.00
2023-04-21T03:11:17.612Z,1.00
2023-04-21T03:11:42.861Z,1.00
2023-04-21T03:12:05.844Z,99.90
2023-04-21T03:12:28.585Z,99.90
2023-04-21T03:12:51.257Z,99.90
2023-04-21T03:13:16.470Z,99.90
2023-04-21T03:13:39.287Z,99.90
2023-04-21T03:14:02.077Z,99.90
2023-04-21T03:14:24.852Z,99.90
2023-04-21T03:14:48.199Z,99.90
2023-04-21T03:15:11.878Z,99.90
2023-04-21T03:15:34.591Z,99.90
2023-04-21T03:15:57.945Z,99.90
2023-04-21T03:16:20.698Z,99.90
2023-04-21T03:16:43.549Z,99.90
2023-04-21T03:17:08.658Z,99.90
2023-04-21T03:17:33.154Z,99.90
2023-04-21T03:17:56.543Z,99.90
2023-04-21T03:18:19.421Z,99.90
2023-04-21T03:18:42.116Z,1.00
2023-04-21T03:19:04.889Z,1.00
2023-04-21T03:19:29.898Z,1.00
2023-04-21T03:19:52.680Z,1.00
2023-04-21T03:20:16.611Z,99.90
2023-04-21T03:20:39.494Z,99.90
2023-04-21T03:21:02.274Z,99.90
2023-04-21T03:21:27.263Z,99.90
2023-04-21T03:21:50.089Z,1.00
2023-04-21T03:22:15.290Z,1.00
2023-04-21T03:22:38.167Z,1.00
2023-04-21T03:23:01.071Z,1.00
2023-04-21T03:23:25.680Z,1.00
2023-04-21T03:23:51.104Z,1.00
2023-04-21T03:24:14.283Z,1.00
2023-04-21T03:24:37.012Z,1.00
2023-04-21T03:24:59.819Z,99.90
2023-04-21T03:25:22.778Z,99.90
2023-04-21T03:25:45.678Z,99.90
2023-04-21T03:26:08.829Z,99.90
2023-04-21T03:26:31.555Z,99.90
2023-04-21T03:26:54.534Z,99.90
2023-04-21T03:27:17.337Z,99.90
2023-04-21T03:27:40.069Z,99.90
2023-04-21T03:28:05.053Z,1.00
2023-04-21T03:28:27.811Z,1.00
2023-04-21T03:28:50.500Z,1.00
2023-04-21T03:29:13.181Z,1.00
2023-04-21T03:29:36.795Z,1.00
2023-04-21T03:30:01.961Z,1.00
2023-04-21T03:30:26.449Z,1.00
2023-04-21T03:30:49.304Z,1.00
2023-04-21T03:31:14.331Z,1.00
2023-04-21T03:31:37.211Z,1.00
2023-04-21T03:32:00.131Z,1.00
2023-04-21T03:32:25.452Z,1.00
2023-04-21T03:32:50.722Z,1.00
2023-04-21T03:33:13.470Z,31.00
2023-04-21T03:33:36.179Z,95.30
2023-04-21T03:33:58.910Z,42.20
2023-04-21T03:34:24.803Z,42.60
2023-04-21T03:34:47.594Z,98.00
2023-04-21T03:35:10.318Z,99.90
2023-04-21T03:35:34.478Z,99.40
2023-04-21T03:35:57.318Z,76.70
2023-04-21T03:36:20.364Z,99.90
2023-04-21T03:36:43.150Z,99.90
2023-04-21T03:37:06.089Z,99.90
2023-04-21T03:37:28.879Z,99.90
2023-04-21T03:37:51.596Z,99.90
2023-04-21T03:38:14.535Z,99.90
2023-04-21T03:38:41.981Z,99.90
2023-04-21T03:39:16.834Z,99.90
2023-04-21T03:39:42.887Z,99.90
2023-04-21T03:40:07.548Z,67.50
2023-04-21T03:40:30.484Z,7.20
2023-04-21T03:40:53.337Z,1.00
2023-04-21T03:41:18.755Z,1.00
2023-04-21T03:41:41.449Z,1.00
2023-04-21T03:42:05.126Z,1.00
2023-04-21T03:42:30.449Z,1.00
2023-04-21T03:42:53.646Z,1.00
2023-04-21T03:43:16.416Z,1.00
2023-04-21T03:43:41.626Z,1.00
2023-04-21T03:44:04.510Z,4.70
2023-04-21T03:44:29.583Z,33.10
2023-04-21T03:44:52.475Z,98.90
2023-04-21T03:45:15.574Z,99.90
2023-04-21T03:45:38.307Z,99.90
2023-04-21T03:46:01.157Z,99.90
2023-04-21T03:46:23.940Z,99.90
2023-04-21T03:46:46.752Z,99.90
2023-04-21T03:47:09.481Z,92.70
2023-04-21T03:47:32.402Z,99.90
2023-04-21T03:47:55.989Z,99.90
2023-04-21T03:48:18.861Z,99.90
2023-04-21T03:48:41.739Z,99.90
2023-04-21T03:49:04.564Z,99.90
2023-04-21T03:49:29.518Z,99.90
2023-04-21T03:49:52.250Z,99.90
2023-04-21T03:50:18.157Z,99.90
2023-04-21T03:50:41.089Z,99.90
2023-04-21T03:51:04.028Z,99.90
2023-04-21T03:51:27.482Z,99.90
2023-04-21T03:51:50.265Z,95.40
2023-04-21T03:52:13.016Z,86.60
2023-04-21T03:52:38.612Z,96.40
2023-04-21T03:53:01.441Z,99.90
2023-04-21T03:53:24.218Z,99.90
2023-04-21T03:53:48.386Z,99.90
2023-04-21T03:54:11.224Z,99.90
2023-04-21T03:54:33.901Z,99.90
2023-04-21T03:54:56.824Z,99.00
2023-04-21T03:55:19.756Z,99.90
2023-04-21T03:55:42.554Z,99.90
2023-04-21T03:56:08.209Z,99.90
2023-04-21T03:56:31.110Z,99.90
2023-04-21T03:56:54.472Z,99.90
2023-04-21T03:57:17.290Z,99.90
2023-04-21T03:57:41.348Z,99.90
2023-04-21T03:58:04.117Z,99.90
2023-04-21T03:58:26.911Z,99.90
2023-04-21T03:58:50.104Z,99.90
2023-04-21T03:59:15.301Z,99.90
2023-04-21T03:59:38.087Z,99.90
2023-04-21T04:00:00.839Z,99.90
2023-04-21T04:00:23.859Z,99.90
2023-04-21T04:00:46.649Z,99.90
2023-04-21T04:01:09.609Z,99.90
2023-04-21T04:01:32.350Z,99.90
2023-04-21T04:01:57.219Z,99.90
2023-04-21T04:02:20.132Z,99.90
2023-04-21T04:02:44.001Z,99.90
2023-04-21T04:03:07.840Z,99.90
2023-04-21T04:03:31.620Z,99.90
2023-04-21T04:03:54.971Z,99.90
2023-04-21T04:04:17.942Z,99.90
2023-04-21T04:04:41.564Z,99.90
2023-04-21T04:05:05.482Z,99.90
2023-04-21T04:05:28.541Z,99.90
2023-04-21T04:05:51.514Z,99.90
2023-04-21T04:06:14.273Z,99.90
2023-04-21T04:06:36.974Z,99.90
2023-04-21T04:06:59.709Z,99.90
2023-04-21T04:07:22.411Z,99.90
2023-04-21T04:07:45.529Z,99.90
2023-04-21T04:08:08.314Z,99.90
2023-04-21T04:08:31.596Z,99.90
2023-04-21T04:08:55.830Z,99.90
2023-04-21T04:09:18.724Z,99.90
2023-04-21T04:09:42.275Z,99.90
2023-04-21T04:10:05.210Z,99.90
2023-04-21T04:10:30.351Z,1.00
2023-04-21T04:10:53.275Z,99.90
2023-04-21T04:11:18.534Z,1.00
2023-04-21T04:11:41.261Z,1.00
2023-04-21T04:12:04.346Z,99.90
2023-04-21T04:12:27.095Z,99.90
2023-04-21T04:12:49.862Z,99.90
2023-04-21T04:13:12.576Z,99.90
2023-04-21T04:13:35.376Z,99.90
2023-04-21T04:13:58.081Z,99.90
2023-04-21T04:14:20.933Z,99.90
2023-04-21T04:14:43.680Z,99.90
2023-04-21T04:15:07.999Z,99.90
2023-04-21T04:15:30.944Z,99.90
2023-04-21T04:15:53.899Z,10.20
2023-04-21T04:16:16.910Z,1.00
2023-04-21T04:16:39.555Z,1.00
2023-04-21T04:17:04.631Z,1.00
2023-04-21T04:17:27.494Z,1.00
2023-04-21T04:17:50.488Z,1.00
2023-04-21T04:18:13.352Z,40.20
2023-04-21T04:18:37.159Z,96.10
2023-04-21T04:19:00.434Z,90.20
2023-04-21T04:19:23.250Z,46.60
2023-04-21T04:19:48.189Z,24.70
2023-04-21T04:20:11.048Z,1.00
2023-04-21T04:20:33.773Z,1.00
2023-04-21T04:20:56.528Z,1.00
2023-04-21T04:21:22.167Z,1.00
2023-04-21T04:21:46.568Z,1.00
2023-04-21T04:22:10.462Z,1.00
2023-04-21T04:22:33.934Z,1.00
2023-04-21T04:22:56.721Z,1.00
2023-04-21T04:23:21.661Z,1.00
2023-04-21T04:23:44.832Z,1.00
2023-04-21T04:24:11.626Z,1.00
2023-04-21T04:24:34.427Z,1.00
2023-04-21T04:24:59.993Z,1.00
2023-04-21T04:25:23.565Z,1.00
2023-04-21T04:25:48.018Z,1.00
2023-04-21T04:26:13.239Z,1.00
2023-04-21T04:26:38.590Z,1.00
2023-04-21T04:27:03.771Z,1.00
2023-04-21T04:27:26.931Z,1.00
2023-04-21T04:27:52.616Z,1.00
2023-04-21T04:28:17.695Z,1.00
2023-04-21T04:28:41.469Z,99.90
2023-04-21T04:29:06.116Z,99.90
2023-04-21T04:29:29.448Z,1.00
2023-04-21T04:29:53.459Z,1.00
2023-04-21T04:30:16.843Z,1.00
2023-04-21T04:30:39.550Z,1.00
2023-04-21T04:31:03.312Z,99.90
2023-04-21T04:31:26.137Z,99.90
2023-04-21T04:31:49.732Z,99.90
2023-04-21T04:32:12.705Z,8.80
2023-04-21T04:32:35.545Z,1.00
2023-04-21T04:33:00.790Z,1.00
2023-04-21T04:33:23.638Z,99.90
2023-04-21T04:33:46.416Z,99.90
2023-04-21T04:34:11.379Z,99.90
2023-04-21T04:34:37.770Z,99.90
2023-04-21T04:35:00.660Z,91.30
2023-04-21T04:35:23.509Z,1.00
2023-04-21T04:35:46.364Z,1.00
2023-04-21T04:36:09.119Z,1.00
2023-04-21T04:36:32.411Z,1.00
2023-04-21T04:36:57.461Z,1.00
2023-04-21T04:37:22.124Z,99.90
2023-04-21T04:37:45.661Z,99.90
2023-04-21T04:38:08.405Z,99.90
2023-04-21T04:38:31.168Z,99.90
2023-04-21T04:38:53.922Z,99.90
2023-04-21T04:39:18.492Z,99.90
2023-04-21T04:39:41.550Z,99.90
2023-04-21T04:40:12.360Z,99.90
2023-04-21T04:40:35.897Z,99.90
2023-04-21T04:40:59.046Z,99.90
2023-04-21T04:41:22.623Z,99.90
2023-04-21T04:41:47.205Z,97.20
2023-04-21T04:42:10.427Z,39.70
2023-04-21T04:42:34.868Z,1.00
2023-04-21T04:42:58.238Z,23.00
2023-04-21T04:43:23.497Z,44.60
2023-04-21T04:43:46.806Z,24.30
2023-04-21T04:44:11.435Z,99.20
2023-04-21T04:44:34.143Z,78.10
2023-04-21T04:44:57.460Z,99.90
2023-04-21T04:45:21.815Z,72.60
2023-04-21T04:45:45.555Z,40.30
2023-04-21T04:46:13.312Z,4.60
2023-04-21T04:46:36.492Z,1.00
2023-04-21T04:47:01.700Z,10.60
2023-04-21T04:47:24.806Z,1.00
2023-04-21T04:47:50.757Z,1.00
2023-04-21T04:48:13.547Z,1.00
2023-04-21T04:48:36.321Z,1.00
2023-04-21T04:48:59.070Z,1.00
2023-04-21T04:49:23.609Z,1.00
2023-04-21T04:49:47.196Z,1.00
2023-04-21T04:50:10.090Z,1.00
2023-04-21T04:50:32.797Z,1.00
2023-04-21T04:50:55.882Z,1.00
2023-04-21T04:51:18.631Z,1.00
2023-04-21T04:51:41.351Z,58.40
2023-04-21T04:52:04.105Z,10.80
2023-04-21T04:52:27.014Z,7.30
2023-04-21T04:52:49.885Z,1.00
2023-04-21T04:53:12.749Z,1.00
2023-04-21T04:53:35.436Z,1.00
2023-04-21T04:53:58.240Z,1.00
2023-04-21T04:54:22.900Z,3.20
2023-04-21T04:54:45.903Z,80.40
2023-04-21T04:55:08.630Z,61.00
2023-04-21T04:55:32.031Z,25.60
2023-04-21T04:55:54.890Z,30.10
2023-04-21T04:56:17.623Z,1.00
2023-04-21T04:56:40.836Z,1.00
2023-04-21T04:57:03.590Z,1.00
2023-04-21T04:57:26.409Z,1.00
2023-04-21T04:57:49.973Z,1.00
2023-04-21T04:58:12.800Z,1.00
2023-04-21T04:58:35.966Z,1.00
2023-04-21T04:58:58.686Z,1.00
2023-04-21T04:59:21.503Z,1.00
2023-04-21T04:59:44.302Z,1.00
2023-04-21T05:00:11.554Z,1.00
2023-04-21T05:00:34.526Z,1.00
2023-04-21T05:00:57.362Z,1.00
2023-04-21T05:01:20.169Z,1.00
2023-04-21T05:01:42.996Z,1.00
2023-04-21T05:02:05.760Z,1.00
2023-04-21T05:02:28.917Z,1.00
2023-04-21T05:02:52.042Z,1.00
2023-04-21T05:03:15.270Z,1.00
2023-04-21T05:03:38.337Z,1.00
2023-04-21T05:04:01.534Z,1.00
2023-04-21T05:04:24.889Z,1.00
2023-04-21T05:04:48.078Z,1.00
2023-04-21T05:05:11.048Z,1.00
2023-04-21T05:05:34.085Z,1.00
2023-04-21T05:05:57.973Z,1.00
2023-04-21T05:06:21.378Z,1.00
2023-04-21T05:06:44.116Z,1.00
2023-04-21T05:07:08.010Z,99.90
2023-04-21T05:07:31.007Z,48.00
2023-04-21T05:07:53.821Z,68.50